CAMANCHE RESERVOIR (CMN)

Elevation: 236' · MOKELUMNE R basin · Operator: East Bay Municipal Utility District

Provisional data, subject to change.
Query executed Sunday at 6:45:22   clock

Select a sensor type for a plot of data.
Note: Reservoir Flows are daily averages.

Earlier

Date RES ELE    STORAGE    RES CHG    TOC STO    ABV TOC    OUTFLOW    INFLOW   
 FEET   AF   AF   AF   AF   CFS   CFS  
07/31/2015 172.22 83330 -431 417100 -- 245 11
08/01/2015 172.05 82840 -510 417100 -- 250 11
08/02/2015 171.88 82360 -498 417100 -334740 250 11
08/03/2015 171.70 81860 -510 417100 -335240 250 11
08/04/2015 171.51 81330 -503 417100 -335770 255 14
08/05/2015 171.85 82280 983 417100 -334820 265 797
08/06/2015 172.18 83210 983 417100 -333890 266 789
08/07/2015 172.32 83610 448 417100 -- 253 476
08/08/2015 172.16 83160 -499 417100 -- 246 11
08/09/2015 171.99 82670 -475 417100 -334430 235 11
08/10/2015 171.81 82170 -432 417100 -334930 225 11
08/11/2015 171.66 81750 -377 417100 -335350 225 11
08/12/2015 171.51 81330 -400 417100 -335770 225 11
08/13/2015 171.34 80860 -439 417100 -336240 225 11
08/14/2015 171.17 80390 -411 417100 -- 225 11
08/15/2015 171.03 80000 -439 417100 -- 225 11
08/16/2015 171.87 79560 -435 417100 -337540 225 11
08/17/2015 171.23 80550 1028 417100 -336550 225 797
08/18/2015 171.07 80110 -428 417100 -336990 225 11
08/19/2015 171.43 81110 1026 417100 -335990 225 795
08/20/2015 171.28 80690 -423 417100 -336410 226 11
08/21/2015 171.64 81690 1014 417100 -- 226 802
08/22/2015 171.49 81270 -422 417100 -- 226 11
08/23/2015 171.31 80770 -466 417100 -336330 226 11
08/24/2015 171.66 81750 1063 417100 -335350 216 802
08/25/2015 171.54 81410 -318 417100 -335690 211 11
08/26/2015 171.93 82510 1083 417100 -334590 205 804
08/27/2015 171.78 82080 -411 417100 -335020 201 804
08/28/2015 172.16 83159 1079 -- -- 202 838
08/29/2015 172.03 82774 -385 -- -- 200 0
08/30/2015 -- -- -- -- -- -- --

Later | Latest

Warning! This data is preliminary and subject to revision.

Show CMN Map | Plot CMN Data | 1 Month CMN Data | Real-Time CMN Data | CMN Info